Decoded Metar for KAIB ( in ) (IATA:) | Meteo·Mobile Aviation Weather
aviador You're here:

KAIB Decoded Metar

in
Report Time2018-10-20 21:35:00
UTC Time2018-10-20 21:42:12
Flight Rules vfr VFR
Wind310° at 09 kt
W.Decomp.*RWY 29: 8.5 kt HW 3.1 kt RCW
RWY 23: 1.6 kt HW 8.9 kt RCW
W.Rank310° ranks 11
Current wind is above 310° avg. (7.1)
Visibility9999 m
Phenomena:N/A
Clouds:N/A
Expected CloudBase > 8,000 ft AGL from Temp-Dew spread
CeilingNone
Temp19°C
Dew Point-1°C (26% RH)
AAT13.6°C
QNH1028 hPa
Raw Report
KAIB 202135Z AUTO 31009KT 10SM CLR 19/M01 A3037 RMK AO2=

Extra information for KAIB:More info

Social comments